Terminal Aerodrome Forecast
Issued by NWS Binghamton, NY

Home | Current Version | Previous Version | Text Only | Print | Product List | Glossary On
Versions: 1 2 3 4 5 6 7 8 9 10 11 12 13 14 15 16
000
FTUS41 KBGM 262324
TAFSYR
TAF
KSYR 262324Z 2700/2724 30006KT P6SM BKN060
      TEMPO 2700/2704 SCT060
     FM270400 30003KT P6SM OVC050
     FM270700 29003KT P6SM OVC025
      TEMPO 2709/2713 -SHRASN OVC012
     FM271400 30011KT P6SM OVC035=

USA.gov is the U.S. government's official web portal to all federal, state and local government web resources and services.